Time;durP1;ratioP1;P1;durP2;ratioP2;P2;SDS_P1;SDS_P2;PMS_P1;PMS_P2;Temp;Humidity;BMP_temperature;BMP_pressure;BME280_temperature;BME280_humidity;BME280_pressure;Samples;Min_cycle;Max_cycle;Signal;HPM_P1;HPM_P2
2024/02/29 00:00:26;;;;;;;;;;;18.00;42.70;;;;;;1517302;77;1148;-75
2024/02/29 00:02:27;;;;;;;;;;;17.90;42.80;;;;;;1520561;77;646;-76
2024/02/29 00:04:31;;;;;;;;;;;17.90;42.80;;;;;;1520044;77;649;-74
2024/02/29 00:06:34;;;;;;;;;;;17.90;42.80;;;;;;1520584;77;733;-72
2024/02/29 00:08:36;;;;;;;;;;;17.90;42.70;;;;;;1523073;77;729;-72
2024/02/29 00:10:38;;;;;;;;;;;17.90;42.80;;;;;;1522965;77;1183;-72
2024/02/29 00:12:40;;;;;;;;;;;17.90;42.70;;;;;;1521377;77;780;-71
2024/02/29 00:14:42;;;;;;;;;;;18.00;42.70;;;;;;1516785;77;1926;-72
2024/02/29 00:16:44;;;;;;;;;;;18.00;42.70;;;;;;1525686;77;707;-73
2024/02/29 00:18:47;;;;;;;;;;;17.90;42.80;;;;;;1524919;77;639;-73
2024/02/29 00:20:49;;;;;;;;;;;17.90;42.80;;;;;;1522837;75;1170;-77
2024/02/29 00:22:51;;;;;;;;;;;17.90;42.80;;;;;;1565816;75;566;-73
2024/02/29 00:24:53;;;;;;;;;;;18.00;42.70;;;;;;1564901;74;663;-75
2024/02/29 00:26:54;;;;;;;;;;;17.90;42.80;;;;;;1552915;75;728;-74
2024/02/29 00:28:56;;;;;;;;;;;17.90;42.80;;;;;;1561396;75;1553;-72
2024/02/29 00:30:58;;;;;;;;;;;17.90;42.80;;;;;;1563203;75;1140;-72
2024/02/29 00:33:00;;;;;;;;;;;17.90;42.70;;;;;;1561532;74;679;-73
2024/02/29 00:35:02;;;;;;;;;;;17.90;42.80;;;;;;1562173;74;779;-75
2024/02/29 00:37:04;;;;;;;;;;;17.90;42.80;;;;;;1566945;75;1046;-75
2024/02/29 00:39:07;;;;;;;;;;;17.90;42.80;;;;;;1567130;74;809;-73
2024/02/29 00:41:09;;;;;;;;;;;17.90;42.80;;;;;;1557764;74;1161;-73
2024/02/29 00:43:11;;;;;;;;;;;17.90;42.70;;;;;;1561777;75;749;-75
2024/02/29 00:45:13;;;;;;;;;;;17.90;42.70;;;;;;1563406;75;780;-73
2024/02/29 00:47:15;;;;;;;;;;;18.00;42.80;;;;;;1560461;75;812;-77
2024/02/29 00:49:17;;;;;;;;;;;17.90;42.70;;;;;;1549703;75;663;-74
2024/02/29 00:51:19;;;;;;;;;;;17.90;42.80;;;;;;1556522;75;1147;-75
2024/02/29 00:53:21;;;;;;;;;;;18.00;42.80;;;;;;1563826;75;1930;-71
2024/02/29 00:55:23;;;;;;;;;;;17.90;42.80;;;;;;1563754;75;1042;-73
2024/02/29 00:57:25;;;;;;;;;;;17.90;42.80;;;;;;1565578;75;696;-71
2024/02/29 00:59:27;;;;;;;;;;;18.00;42.70;;;;;;1565071;75;1007;-73
2024/02/29 01:01:28;;;;;;;;;;;18.00;42.70;;;;;;1560474;75;1121;-72
2024/02/29 01:03:30;;;;;;;;;;;18.00;42.70;;;;;;1561166;75;682;-72
2024/02/29 01:05:32;;;;;;;;;;;18.00;42.70;;;;;;1566714;75;691;-75
2024/02/29 01:07:34;;;;;;;;;;;17.90;42.80;;;;;;1563873;74;739;-73
2024/02/29 01:09:36;;;;;;;;;;;17.90;42.70;;;;;;1572344;75;716;-72
2024/02/29 01:11:38;;;;;;;;;;;18.00;42.70;;;;;;1570117;75;1140;-71
2024/02/29 01:13:40;;;;;;;;;;;17.90;42.70;;;;;;1554511;74;1935;-73
2024/02/29 01:15:42;;;;;;;;;;;17.90;42.70;;;;;;1565171;75;664;-74
2024/02/29 01:17:43;;;;;;;;;;;18.00;42.80;;;;;;1557172;74;674;-74
2024/02/29 01:19:45;;;;;;;;;;;17.90;42.70;;;;;;1565614;75;612;-74
2024/02/29 01:21:47;;;;;;;;;;;17.90;42.70;;;;;;1566797;75;1141;-75
2024/02/29 01:23:49;;;;;;;;;;;17.90;42.70;;;;;;1555126;75;750;-73
2024/02/29 01:25:51;;;;;;;;;;;17.90;42.70;;;;;;1548830;75;1476;-74
2024/02/29 01:27:53;;;;;;;;;;;17.90;42.70;;;;;;1551829;75;670;-73
2024/02/29 01:29:55;;;;;;;;;;;18.00;42.80;;;;;;1555036;75;1206;-72
2024/02/29 01:31:57;;;;;;;;;;;17.90;42.70;;;;;;1561249;75;702;-73
2024/02/29 01:33:59;;;;;;;;;;;17.90;42.70;;;;;;1559814;75;1907;-72
2024/02/29 01:36:01;;;;;;;;;;;17.90;42.70;;;;;;1496817;78;682;-73
2024/02/29 01:38:03;;;;;;;;;;;17.90;42.70;;;;;;1502724;78;690;-75
2024/02/29 01:40:05;;;;;;;;;;;17.90;42.80;;;;;;1518305;77;1139;-75
2024/02/29 01:42:07;;;;;;;;;;;17.90;42.70;;;;;;1494275;78;759;-76
2024/02/29 01:44:09;;;;;;;;;;;17.90;42.80;;;;;;1501353;78;712;-75
2024/02/29 01:46:11;;;;;;;;;;;18.00;42.80;;;;;;1501071;78;679;-77
2024/02/29 01:48:13;;;;;;;;;;;17.90;42.80;;;;;;1504827;78;664;-76
2024/02/29 01:50:15;;;;;;;;;;;17.90;42.70;;;;;;1501657;78;1254;-71
2024/02/29 01:52:17;;;;;;;;;;;18.00;42.70;;;;;;1496357;78;821;-73
2024/02/29 01:54:19;;;;;;;;;;;17.90;42.80;;;;;;1509430;78;1938;-73
2024/02/29 01:56:21;;;;;;;;;;;17.90;42.70;;;;;;1501920;78;991;-79
2024/02/29 01:58:23;;;;;;;;;;;18.00;42.80;;;;;;1501275;78;691;-72
2024/02/29 02:00:25;;;;;;;;;;;17.90;42.70;;;;;;1503448;78;1133;-74
2024/02/29 02:02:27;;;;;;;;;;;17.90;42.80;;;;;;1503231;78;653;-73
2024/02/29 02:04:29;;;;;;;;;;;17.90;42.70;;;;;;1508524;78;744;-73
2024/02/29 02:06:31;;;;;;;;;;;17.80;42.60;;;;;;1506221;78;782;-74
2024/02/29 02:08:33;;;;;;;;;;;17.90;42.80;;;;;;1504008;78;753;-74
2024/02/29 02:10:35;;;;;;;;;;;17.90;42.70;;;;;;1503881;78;1157;-72
2024/02/29 02:12:36;;;;;;;;;;;17.90;42.80;;;;;;1498309;78;735;-73
2024/02/29 02:14:39;;;;;;;;;;;17.90;42.70;;;;;;1504607;78;1932;-73
2024/02/29 02:16:41;;;;;;;;;;;18.00;42.70;;;;;;1491140;78;582;-74
2024/02/29 02:18:42;;;;;;;;;;;17.90;42.80;;;;;;1507029;78;687;-74
2024/02/29 02:20:45;;;;;;;;;;;17.90;42.70;;;;;;1498664;78;1596;-73
2024/02/29 02:22:47;;;;;;;;;;;17.90;42.70;;;;;;1511991;78;994;-74
2024/02/29 02:24:49;;;;;;;;;;;17.90;42.70;;;;;;1516455;78;681;-72
2024/02/29 02:26:51;;;;;;;;;;;17.90;42.70;;;;;;1504186;78;708;-72
2024/02/29 02:28:53;;;;;;;;;;;17.90;42.70;;;;;;1503788;78;789;-73
2024/02/29 02:30:54;;;;;;;;;;;18.00;42.70;;;;;;1512618;78;1183;-73
2024/02/29 02:32:57;;;;;;;;;;;17.90;42.70;;;;;;1516049;78;661;-71
2024/02/29 02:34:58;;;;;;;;;;;17.90;42.70;;;;;;1515603;78;1940;-73
2024/02/29 02:37:00;;;;;;;;;;;17.90;42.70;;;;;;1499435;78;680;-73
2024/02/29 02:39:02;;;;;;;;;;;17.90;42.70;;;;;;1508507;78;695;-75
2024/02/29 02:41:04;;;;;;;;;;;17.90;42.70;;;;;;1513662;78;1146;-74
2024/02/29 02:43:06;;;;;;;;;;;17.90;42.70;;;;;;1513028;78;682;-73
2024/02/29 02:45:08;;;;;;;;;;;17.90;42.80;;;;;;1511414;78;610;-75
2024/02/29 02:47:10;;;;;;;;;;;17.90;42.70;;;;;;1514544;78;673;-73
2024/02/29 02:49:13;;;;;;;;;;;17.90;42.70;;;;;;1513727;78;701;-76
2024/02/29 02:51:15;;;;;;;;;;;17.90;42.70;;;;;;1513066;78;1131;-75
2024/02/29 02:53:17;;;;;;;;;;;17.90;42.70;;;;;;1506311;78;746;-72
2024/02/29 02:55:19;;;;;;;;;;;17.90;42.70;;;;;;1510291;78;1949;-73
2024/02/29 02:57:21;;;;;;;;;;;17.90;42.70;;;;;;1510022;78;655;-72
2024/02/29 02:59:23;;;;;;;;;;;17.90;42.70;;;;;;1508510;78;707;-72
2024/02/29 03:01:25;;;;;;;;;;;18.00;42.70;;;;;;1515586;77;1099;-74
2024/02/29 03:03:27;;;;;;;;;;;18.00;42.80;;;;;;1514677;78;636;-75
2024/02/29 03:05:29;;;;;;;;;;;18.00;42.80;;;;;;1513600;78;745;-73
2024/02/29 03:07:31;;;;;;;;;;;17.80;42.60;;;;;;1509552;78;695;-76
2024/02/29 03:09:33;;;;;;;;;;;17.90;42.70;;;;;;1519861;78;737;-76
2024/02/29 03:11:35;;;;;;;;;;;17.90;42.80;;;;;;1515413;78;1165;-73
2024/02/29 03:13:37;;;;;;;;;;;17.90;42.70;;;;;;1511902;78;733;-73
2024/02/29 03:15:40;;;;;;;;;;;18.00;42.70;;;;;;1477649;79;1951;-72
2024/02/29 03:17:42;;;;;;;;;;;17.90;42.70;;;;;;1509190;78;1567;-73
2024/02/29 03:19:44;;;;;;;;;;;17.90;42.70;;;;;;1516462;78;671;-75
2024/02/29 03:21:45;;;;;;;;;;;17.90;42.70;;;;;;1504495;78;1163;-70
2024/02/29 03:23:47;;;;;;;;;;;17.90;42.80;;;;;;1507909;78;996;-71
2024/02/29 03:25:49;;;;;;;;;;;18.00;42.80;;;;;;1503666;78;684;-71
2024/02/29 03:27:51;;;;;;;;;;;18.00;42.80;;;;;;1500543;78;687;-74
2024/02/29 03:29:53;;;;;;;;;;;17.90;42.70;;;;;;1503095;78;1208;-74
2024/02/29 03:31:55;;;;;;;;;;;17.90;42.70;;;;;;1501736;78;722;-75
2024/02/29 03:33:57;;;;;;;;;;;17.90;42.80;;;;;;1509864;78;748;-76
2024/02/29 03:36:00;;;;;;;;;;;17.90;42.80;;;;;;1508747;78;1920;-75
2024/02/29 03:38:02;;;;;;;;;;;17.90;42.80;;;;;;1508331;78;690;-73
2024/02/29 03:40:06;;;;;;;;;;;17.90;42.80;;;;;;1507470;78;1148;-73
2024/02/29 03:42:08;;;;;;;;;;;18.00;42.80;;;;;;1506867;78;701;-76
2024/02/29 03:44:09;;;;;;;;;;;17.90;42.70;;;;;;1509707;78;745;-72
2024/02/29 03:46:11;;;;;;;;;;;17.90;42.80;;;;;;1508016;78;678;-74
2024/02/29 03:48:13;;;;;;;;;;;17.90;42.70;;;;;;1500517;78;592;-73
2024/02/29 03:50:15;;;;;;;;;;;17.90;42.70;;;;;;1500786;78;1137;-73
2024/02/29 03:52:17;;;;;;;;;;;17.90;42.80;;;;;;1505958;78;726;-73
2024/02/29 03:54:19;;;;;;;;;;;18.00;42.80;;;;;;1507448;78;1933;-73
2024/02/29 03:56:21;;;;;;;;;;;17.90;42.70;;;;;;1512075;78;677;-75
2024/02/29 03:58:23;;;;;;;;;;;17.90;42.80;;;;;;1503501;78;697;-72
2024/02/29 04:00:25;;;;;;;;;;;17.90;42.80;;;;;;1503681;78;1108;-76
2024/02/29 04:02:27;;;;;;;;;;;17.90;42.80;;;;;;1509495;78;776;-77
2024/02/29 04:04:29;;;;;;;;;;;18.00;42.70;;;;;;1511408;78;696;-72
2024/02/29 04:06:31;;;;;;;;;;;17.90;42.70;;;;;;1509065;78;666;-72
2024/02/29 04:08:33;;;;;;;;;;;17.90;42.80;;;;;;1503932;78;844;-73
2024/02/29 04:10:36;;;;;;;;;;;17.90;42.70;;;;;;1514763;78;1142;-73
2024/02/29 04:12:38;;;;;;;;;;;17.90;42.70;;;;;;1512952;78;648;-76
2024/02/29 04:14:39;;;;;;;;;;;17.90;42.80;;;;;;1504455;78;1954;-72
2024/02/29 04:16:41;;;;;;;;;;;17.90;42.70;;;;;;1510262;78;759;-77
2024/02/29 04:18:43;;;;;;;;;;;17.90;42.80;;;;;;1499261;78;655;-76
2024/02/29 04:20:45;;;;;;;;;;;17.90;42.80;;;;;;1510527;77;1215;-72
2024/02/29 04:22:47;;;;;;;;;;;17.90;42.70;;;;;;1491960;78;809;-73
2024/02/29 04:24:49;;;;;;;;;;;18.00;42.80;;;;;;1521292;78;585;-74
2024/02/29 04:26:51;;;;;;;;;;;17.90;42.70;;;;;;1516246;78;706;-76
2024/02/29 04:28:53;;;;;;;;;;;17.90;42.70;;;;;;1512005;78;716;-73
2024/02/29 04:30:54;;;;;;;;;;;18.00;42.70;;;;;;1516883;78;1184;-73
2024/02/29 04:32:57;;;;;;;;;;;17.90;42.80;;;;;;1507716;78;763;-77
2024/02/29 04:34:59;;;;;;;;;;;18.00;42.70;;;;;;1518465;78;1904;-76
2024/02/29 04:37:00;;;;;;;;;;;18.00;42.70;;;;;;1510337;78;656;-71
2024/02/29 04:39:02;;;;;;;;;;;17.90;42.70;;;;;;1504143;78;668;-72
2024/02/29 04:41:04;;;;;;;;;;;18.00;42.80;;;;;;1518146;78;1136;-74
2024/02/29 04:43:08;;;;;;;;;;;17.90;42.70;;;;;;1517278;78;724;-75
2024/02/29 04:45:10;;;;;;;;;;;17.90;42.70;;;;;;1516708;78;1031;-73
2024/02/29 04:47:12;;;;;;;;;;;17.90;42.70;;;;;;1512148;78;679;-72
2024/02/29 04:49:14;;;;;;;;;;;17.90;42.70;;;;;;1504593;78;725;-74
2024/02/29 04:51:16;;;;;;;;;;;17.90;42.70;;;;;;1515786;78;1115;-73
2024/02/29 04:53:18;;;;;;;;;;;17.90;42.70;;;;;;1511865;78;711;-72
2024/02/29 04:55:20;;;;;;;;;;;17.80;42.60;;;;;;1519616;78;1936;-72
2024/02/29 04:57:22;;;;;;;;;;;17.90;42.70;;;;;;1513931;78;745;-72
2024/02/29 04:59:24;;;;;;;;;;;17.90;42.70;;;;;;1516178;78;694;-72
2024/02/29 05:01:25;;;;;;;;;;;17.90;42.80;;;;;;1505258;78;1098;-74
2024/02/29 05:03:27;;;;;;;;;;;17.90;42.80;;;;;;1516338;78;688;-76
2024/02/29 05:05:29;;;;;;;;;;;17.90;42.80;;;;;;1516778;78;724;-72
2024/02/29 05:07:31;;;;;;;;;;;17.90;42.80;;;;;;1510781;78;656;-77
2024/02/29 05:09:33;;;;;;;;;;;17.90;42.80;;;;;;1514277;78;1527;-71
2024/02/29 05:11:35;;;;;;;;;;;17.90;42.70;;;;;;1514983;78;1157;-73
2024/02/29 05:13:37;;;;;;;;;;;17.90;42.70;;;;;;1515069;78;650;-75
2024/02/29 05:15:39;;;;;;;;;;;17.90;42.70;;;;;;1502149;78;1934;-73
2024/02/29 05:17:40;;;;;;;;;;;17.90;42.70;;;;;;1514422;78;677;-75
2024/02/29 05:19:42;;;;;;;;;;;18.00;42.70;;;;;;1505449;78;658;-71
2024/02/29 05:21:45;;;;;;;;;;;17.80;42.60;;;;;;1509597;77;1118;-72
2024/02/29 05:23:48;;;;;;;;;;;17.90;42.80;;;;;;1507613;78;1056;-73
2024/02/29 05:25:49;;;;;;;;;;;17.80;42.60;;;;;;1507642;78;645;-72
2024/02/29 05:27:52;;;;;;;;;;;17.90;42.70;;;;;;1516040;78;749;-73
2024/02/29 05:29:54;;;;;;;;;;;17.90;42.70;;;;;;1513616;78;1165;-75
2024/02/29 05:31:56;;;;;;;;;;;17.90;42.70;;;;;;1507199;78;701;-74
2024/02/29 05:33:58;;;;;;;;;;;17.90;42.70;;;;;;1514653;78;673;-75
2024/02/29 05:36:00;;;;;;;;;;;17.90;42.70;;;;;;1507982;78;1930;-75
2024/02/29 05:38:01;;;;;;;;;;;17.90;42.30;;;;;;1506883;77;682;-74
2024/02/29 05:40:05;;;;;;;;;;;17.90;41.70;;;;;;1511669;78;1191;-72
2024/02/29 05:42:07;;;;;;;;;;;17.80;41.90;;;;;;1516376;78;858;-74
2024/02/29 05:44:09;;;;;;;;;;;17.80;42.20;;;;;;1516160;78;675;-73
2024/02/29 05:46:11;;;;;;;;;;;17.80;42.30;;;;;;1514764;78;1001;-72
2024/02/29 05:48:13;;;;;;;;;;;17.80;42.40;;;;;;1511940;78;769;-73
2024/02/29 05:50:15;;;;;;;;;;;17.80;42.50;;;;;;1514163;77;1148;-73
2024/02/29 05:52:17;;;;;;;;;;;17.80;42.50;;;;;;1505233;78;727;-74
2024/02/29 05:54:19;;;;;;;;;;;17.80;42.60;;;;;;1514898;78;767;-73
2024/02/29 05:56:20;;;;;;;;;;;17.80;42.60;;;;;;1512421;78;1942;-74
2024/02/29 05:58:22;;;;;;;;;;;17.90;42.70;;;;;;1511766;78;745;-73
2024/02/29 06:00:24;;;;;;;;;;;17.90;42.70;;;;;;1505248;78;1082;-71
2024/02/29 06:02:27;;;;;;;;;;;17.90;42.70;;;;;;1508793;78;707;-73
2024/02/29 06:04:29;;;;;;;;;;;17.90;42.70;;;;;;1508998;78;762;-74
2024/02/29 06:06:30;;;;;;;;;;;17.80;42.60;;;;;;1511876;78;1555;-74
2024/02/29 06:08:32;;;;;;;;;;;17.90;42.80;;;;;;1508537;78;692;-74
2024/02/29 06:10:34;;;;;;;;;;;17.90;42.80;;;;;;1513063;78;1285;-75
2024/02/29 06:12:36;;;;;;;;;;;17.90;42.70;;;;;;1506732;78;674;-71
2024/02/29 06:14:38;;;;;;;;;;;17.90;42.70;;;;;;1515514;78;830;-74
2024/02/29 06:16:40;;;;;;;;;;;17.90;42.70;;;;;;1521060;78;1934;-74
2024/02/29 06:18:46;;;;;;;;;;;17.90;42.80;;;;;;1507399;78;668;-72
2024/02/29 06:20:45;;;;;;;;;;;17.90;42.70;;;;;;1502111;78;1124;-73
2024/02/29 06:22:47;;;;;;;;;;;17.80;42.60;;;;;;1510800;78;779;-72
2024/02/29 06:24:50;;;;;;;;;;;17.90;42.80;;;;;;1508361;78;1003;-75
2024/02/29 06:26:51;;;;;;;;;;;17.90;42.80;;;;;;1510759;78;819;-76
2024/02/29 06:28:53;;;;;;;;;;;17.90;42.80;;;;;;1504803;78;694;-72
2024/02/29 06:30:55;;;;;;;;;;;17.90;42.80;;;;;;1512760;78;1210;-73
2024/02/29 06:32:57;;;;;;;;;;;17.90;42.70;;;;;;1507188;78;790;-70
2024/02/29 06:34:59;;;;;;;;;;;17.80;42.60;;;;;;1493191;78;758;-73
2024/02/29 06:37:01;;;;;;;;;;;17.90;42.80;;;;;;1512082;78;1929;-73
2024/02/29 06:39:07;;;;;;;;;;;17.90;42.80;;;;;;1501661;78;907;-71
2024/02/29 06:41:07;;;;;;;;;;;17.90;42.80;;;;;;1503058;78;1096;-74
2024/02/29 06:43:09;;;;;;;;;;;17.90;42.70;;;;;;1510359;78;679;-74
2024/02/29 06:45:11;;;;;;;;;;;17.90;42.80;;;;;;1502549;78;688;-75
2024/02/29 06:47:13;;;;;;;;;;;17.90;42.80;;;;;;1499757;78;1089;-75
2024/02/29 06:49:15;;;;;;;;;;;17.90;42.80;;;;;;1506949;78;711;-73
2024/02/29 06:51:17;;;;;;;;;;;17.90;42.80;;;;;;1507020;77;1131;-73
2024/02/29 06:53:19;;;;;;;;;;;18.00;42.80;;;;;;1505949;78;665;-74
2024/02/29 06:55:21;;;;;;;;;;;17.90;42.80;;;;;;1499285;78;669;-74
2024/02/29 06:57:23;;;;;;;;;;;17.90;42.80;;;;;;1497962;78;748;-73
2024/02/29 06:59:25;;;;;;;;;;;17.90;42.80;;;;;;1501505;78;720;-73
2024/02/29 07:01:30;;;;;;;;;;;17.90;42.80;;;;;;1504930;78;1161;-72
2024/02/29 07:03:31;;;;;;;;;;;17.90;42.80;;;;;;1499095;78;1687;-74
2024/02/29 07:05:33;;;;;;;;;;;18.00;42.80;;;;;;1502193;78;525;-73
2024/02/29 07:07:35;;;;;;;;;;;17.90;42.80;;;;;;1507081;78;884;-73
2024/02/29 07:09:39;;;;;;;;;;;17.90;42.80;;;;;;1509234;78;688;-74
2024/02/29 07:11:40;;;;;;;;;;;17.90;42.80;;;;;;1508264;78;1946;-73
2024/02/29 07:13:42;;;;;;;;;;;17.90;42.80;;;;;;1503890;78;717;-73
2024/02/29 07:15:44;;;;;;;;;;;18.00;42.80;;;;;;1507780;78;1937;-74
2024/02/29 07:17:46;;;;;;;;;;;17.90;42.80;;;;;;1497244;78;524;-72
2024/02/29 07:19:48;;;;;;;;;;;17.90;42.80;;;;;;1503956;78;698;-71
2024/02/29 07:21:50;;;;;;;;;;;17.90;42.80;;;;;;1504453;78;1172;-74
2024/02/29 07:23:52;;;;;;;;;;;17.90;42.80;;;;;;1509622;78;736;-73
2024/02/29 07:25:54;;;;;;;;;;;17.90;42.90;;;;;;1504582;78;1094;-73
2024/02/29 07:27:57;;;;;;;;;;;17.90;42.80;;;;;;1520801;78;692;-76
2024/02/29 07:29:59;;;;;;;;;;;17.90;42.90;;;;;;1506694;77;1233;-76
2024/02/29 07:32:00;;;;;;;;;;;17.90;42.90;;;;;;1513866;78;670;-74
2024/02/29 07:34:02;;;;;;;;;;;17.90;42.90;;;;;;1508717;78;792;-77
2024/02/29 07:36:04;;;;;;;;;;;17.90;42.90;;;;;;1501609;78;1927;-73
2024/02/29 07:38:06;;;;;;;;;;;17.90;43.00;;;;;;1507803;78;786;-72
2024/02/29 07:40:08;;;;;;;;;;;17.90;42.90;;;;;;1511533;78;1143;-72
2024/02/29 07:42:10;;;;;;;;;;;17.90;42.90;;;;;;1513160;78;671;-75
2024/02/29 07:44:12;;;;;;;;;;;17.90;42.90;;;;;;1520217;78;637;-73
2024/02/29 07:46:14;;;;;;;;;;;17.90;42.90;;;;;;1504015;78;714;-73
2024/02/29 07:48:16;;;;;;;;;;;17.90;42.90;;;;;;1511417;78;680;-74
2024/02/29 07:50:19;;;;;;;;;;;17.90;42.90;;;;;;1507037;78;1127;-71
2024/02/29 07:52:21;;;;;;;;;;;17.90;42.90;;;;;;1508681;78;746;-75
2024/02/29 07:54:24;;;;;;;;;;;17.90;42.90;;;;;;1512589;78;801;-73
2024/02/29 07:56:25;;;;;;;;;;;17.90;43.00;;;;;;1508586;78;1911;-73
2024/02/29 07:58:28;;;;;;;;;;;17.90;43.00;;;;;;1506014;78;1557;-72
2024/02/29 08:00:30;;;;;;;;;;;17.90;43.00;;;;;;1510251;78;1148;-76
2024/02/29 08:02:32;;;;;;;;;;;17.90;43.00;;;;;;1516332;78;684;-72
2024/02/29 08:04:34;;;;;;;;;;;17.90;43.00;;;;;;1507916;78;776;-72
2024/02/29 08:06:36;;;;;;;;;;;17.90;42.90;;;;;;1504938;78;720;-72
2024/02/29 08:08:38;;;;;;;;;;;17.90;42.90;;;;;;1504921;78;650;-72
2024/02/29 08:10:40;;;;;;;;;;;17.90;43.00;;;;;;1506527;78;1107;-70
2024/02/29 08:12:43;;;;;;;;;;;18.00;43.00;;;;;;1514474;78;652;-72
2024/02/29 08:14:46;;;;;;;;;;;17.90;42.90;;;;;;1510673;78;995;-73
2024/02/29 08:16:48;;;;;;;;;;;17.90;43.00;;;;;;1510771;78;1942;-72
2024/02/29 08:18:50;;;;;;;;;;;17.90;43.00;;;;;;1503190;78;730;-74
2024/02/29 08:20:52;;;;;;;;;;;17.90;43.00;;;;;;1514546;78;1199;-71
2024/02/29 08:22:54;;;;;;;;;;;17.90;43.00;;;;;;1519312;78;681;-75
2024/02/29 08:24:57;;;;;;;;;;;17.90;43.00;;;;;;1513042;78;663;-74
2024/02/29 08:26:58;;;;;;;;;;;17.90;43.00;;;;;;1514565;78;1075;-71
2024/02/29 08:29:00;;;;;;;;;;;17.90;43.00;;;;;;1511386;78;759;-73
2024/02/29 08:31:02;;;;;;;;;;;17.90;43.00;;;;;;1512360;78;1196;-73
2024/02/29 08:33:04;;;;;;;;;;;17.90;43.00;;;;;;1515190;78;682;-72
2024/02/29 08:35:07;;;;;;;;;;;17.90;43.00;;;;;;1521101;78;896;-73
2024/02/29 08:37:10;;;;;;;;;;;17.90;43.00;;;;;;1517914;78;1919;-73
2024/02/29 08:39:12;;;;;;;;;;;17.90;43.00;;;;;;1512836;78;726;-73
2024/02/29 08:41:14;;;;;;;;;;;17.90;43.00;;;;;;1511731;77;1144;-74
2024/02/29 08:43:16;;;;;;;;;;;17.90;43.00;;;;;;1517200;78;734;-76
2024/02/29 08:45:17;;;;;;;;;;;17.90;43.10;;;;;;1514475;78;621;-74
2024/02/29 08:47:19;;;;;;;;;;;17.90;43.00;;;;;;1517356;78;743;-73
2024/02/29 08:49:21;;;;;;;;;;;17.90;43.00;;;;;;1518446;78;678;-74
2024/02/29 08:51:23;;;;;;;;;;;17.90;43.20;;;;;;1514178;78;1135;-73
2024/02/29 08:53:25;;;;;;;;;;;18.00;43.10;;;;;;1507824;78;717;-74
2024/02/29 08:55:27;;;;;;;;;;;17.90;43.10;;;;;;1508885;78;1361;-74
2024/02/29 08:57:29;;;;;;;;;;;17.90;43.10;;;;;;1512393;78;1929;-70
2024/02/29 08:59:32;;;;;;;;;;;17.90;43.10;;;;;;1511655;78;673;-73
2024/02/29 09:01:34;;;;;;;;;;;17.90;43.10;;;;;;1507985;78;1137;-74
2024/02/29 09:03:36;;;;;;;;;;;18.00;43.10;;;;;;1511125;78;698;-75
2024/02/29 09:05:38;;;;;;;;;;;17.90;43.10;;;;;;1516234;78;727;-74
2024/02/29 09:07:40;;;;;;;;;;;17.90;43.10;;;;;;1514304;78;673;-74
2024/02/29 09:09:42;;;;;;;;;;;18.00;43.10;;;;;;1509107;78;698;-71
2024/02/29 09:11:44;;;;;;;;;;;17.90;43.20;;;;;;1515311;78;1118;-74
2024/02/29 09:13:46;;;;;;;;;;;18.00;43.10;;;;;;1516078;78;781;-74
2024/02/29 09:15:48;;;;;;;;;;;17.90;43.10;;;;;;1508764;78;670;-75
2024/02/29 09:17:51;;;;;;;;;;;17.90;43.10;;;;;;1506672;78;1943;-72
2024/02/29 09:19:53;;;;;;;;;;;17.80;43.00;;;;;;1503458;78;1148;-72
2024/02/29 09:21:54;;;;;;;;;;;17.90;43.10;;;;;;1520074;78;774;-74
2024/02/29 09:23:56;;;;;;;;;;;18.00;43.10;;;;;;1509302;78;714;-76
2024/02/29 09:25:58;;;;;;;;;;;18.00;43.20;;;;;;1505436;77;967;-75
2024/02/29 09:28:00;;;;;;;;;;;17.90;43.10;;;;;;1524261;77;707;-76
2024/02/29 09:30:02;;;;;;;;;;;18.00;43.20;;;;;;1523858;77;1206;-74
2024/02/29 09:32:04;;;;;;;;;;;18.00;43.20;;;;;;1517165;77;588;-73
2024/02/29 09:34:07;;;;;;;;;;;17.90;43.20;;;;;;1516970;77;674;-72
2024/02/29 09:36:10;;;;;;;;;;;17.90;43.20;;;;;;1527930;77;615;-71
2024/02/29 09:38:12;;;;;;;;;;;18.00;43.20;;;;;;1510867;77;1937;-74
2024/02/29 09:40:15;;;;;;;;;;;17.90;43.20;;;;;;1528594;77;1175;-76
2024/02/29 09:42:17;;;;;;;;;;;17.90;43.20;;;;;;1526311;77;684;-74
2024/02/29 09:44:19;;;;;;;;;;;18.00;43.20;;;;;;1521556;77;762;-74
2024/02/29 09:46:21;;;;;;;;;;;17.90;43.20;;;;;;1520370;77;597;-75
2024/02/29 09:48:23;;;;;;;;;;;18.00;43.20;;;;;;1511897;77;669;-72
2024/02/29 09:50:24;;;;;;;;;;;18.00;43.20;;;;;;1533663;77;1154;-74
2024/02/29 09:52:26;;;;;;;;;;;18.00;43.20;;;;;;1514257;77;1536;-76
2024/02/29 09:54:30;;;;;;;;;;;17.90;43.30;;;;;;1526352;77;669;-74
2024/02/29 09:56:32;;;;;;;;;;;17.90;43.20;;;;;;1533116;77;1901;-75
2024/02/29 09:58:34;;;;;;;;;;;18.00;43.20;;;;;;1519093;77;748;-74
2024/02/29 10:00:35;;;;;;;;;;;17.90;43.30;;;;;;1532918;77;1146;-74
2024/02/29 10:02:46;;;;;;;;;;;17.90;43.20;;;;;;1526780;77;709;-73
2024/02/29 10:04:45;;;;;;;;;;;17.90;43.30;;;;;;1516799;77;1630;-74
2024/02/29 10:06:47;;;;;;;;;;;18.00;43.30;;;;;;1518158;77;640;-76
2024/02/29 10:08:50;;;;;;;;;;;17.90;43.30;;;;;;1519661;77;687;-73
2024/02/29 10:10:52;;;;;;;;;;;17.90;43.20;;;;;;1530826;77;1148;-73
2024/02/29 10:12:58;;;;;;;;;;;17.90;43.30;;;;;;1534012;77;687;-76
2024/02/29 10:15:00;;;;;;;;;;;18.00;43.20;;;;;;1528070;77;950;-74
2024/02/29 10:17:03;;;;;;;;;;;18.00;43.20;;;;;;1531317;77;1936;-72
2024/02/29 10:19:06;;;;;;;;;;;18.00;43.20;;;;;;1526921;77;747;-73
2024/02/29 10:21:10;;;;;;;;;;;17.90;43.20;;;;;;1521949;77;1611;-74
2024/02/29 10:23:12;;;;;;;;;;;18.00;43.20;;;;;;1528736;77;669;-74
2024/02/29 10:25:14;;;;;;;;;;;17.90;43.30;;;;;;1525298;77;712;-73
2024/02/29 10:27:16;;;;;;;;;;;18.00;43.20;;;;;;1509376;77;1128;-74
2024/02/29 10:29:18;;;;;;;;;;;18.00;43.30;;;;;;1505966;78;705;-71
2024/02/29 10:31:20;;;;;;;;;;;17.90;43.30;;;;;;1495650;78;1228;-73
2024/02/29 10:33:22;;;;;;;;;;;17.90;43.10;;;;;;1505294;78;682;-73
2024/02/29 10:35:26;;;;;;;;;;;17.90;43.10;;;;;;1504411;78;711;-73
2024/02/29 10:37:28;;;;;;;;;;;17.90;43.10;;;;;;1504355;78;1897;-75
2024/02/29 10:39:29;;;;;;;;;;;17.90;43.20;;;;;;1507534;78;704;-74
2024/02/29 10:41:33;;;;;;;;;;;18.00;42.80;;;;;;1508572;78;1150;-75
2024/02/29 10:43:35;;;;;;;;;;;17.90;42.90;;;;;;1503785;78;701;-73
2024/02/29 10:45:37;;;;;;;;;;;17.90;43.00;;;;;;1501102;78;560;-74
2024/02/29 10:47:44;;;;;;;;;;;17.90;43.10;;;;;;1509556;78;1581;-74
2024/02/29 10:49:46;;;;;;;;;;;18.00;43.20;;;;;;1508073;78;718;-75
2024/02/29 10:51:54;;;;;;;;;;;18.00;43.30;;;;;;1506000;78;1056;-73
2024/02/29 10:54:00;;;;;;;;;;;18.00;43.30;;;;;;1501979;78;699;-75
2024/02/29 10:56:04;;;;;;;;;;;17.90;43.30;;;;;;1498655;78;713;-74
2024/02/29 10:58:07;;;;;;;;;;;17.90;43.30;;;;;;1507226;78;1938;-74
2024/02/29 11:00:11;;;;;;;;;;;18.00;43.30;;;;;;1500776;78;1209;-71
2024/02/29 11:02:13;;;;;;;;;;;18.00;43.30;;;;;;1503773;78;758;-73
2024/02/29 11:04:15;;;;;;;;;;;18.00;43.40;;;;;;1503781;78;1473;-76
2024/02/29 11:06:17;;;;;;;;;;;17.90;43.40;;;;;;1519738;78;1142;-73
2024/02/29 11:08:19;;;;;;;;;;;18.00;43.40;;;;;;1515406;78;1867;-71
2024/02/29 11:10:21;;;;;;;;;;;17.90;43.40;;;;;;1507849;78;1459;-74
2024/02/29 11:12:24;;;;;;;;;;;18.00;43.50;;;;;;1518013;77;1273;-73
2024/02/29 11:14:26;;;;;;;;;;;18.00;43.50;;;;;;1510260;77;1784;-77
2024/02/29 11:16:28;;;;;;;;;;;17.90;43.50;;;;;;1477661;79;1209;-73
2024/02/29 11:18:32;;;;;;;;;;;17.90;43.40;;;;;;1506756;77;1942;-73
2024/02/29 11:20:33;;;;;;;;;;;18.00;43.50;;;;;;1514254;78;1501;-72
2024/02/29 11:22:39;;;;;;;;;;;18.00;43.40;;;;;;1523177;77;1107;-73
2024/02/29 11:24:44;;;;;;;;;;;18.00;43.40;;;;;;1503565;78;1520;-75
2024/02/29 11:26:46;;;;;;;;;;;18.00;43.30;;;;;;1515623;77;1480;-73
2024/02/29 11:28:49;;;;;;;;;;;18.00;43.30;;;;;;1518238;77;1510;-75
2024/02/29 11:30:51;;;;;;;;;;;18.00;43.30;;;;;;1508680;77;1363;-73
2024/02/29 11:32:53;;;;;;;;;;;18.00;43.20;;;;;;1512073;78;1351;-72
2024/02/29 11:34:59;;;;;;;;;;;18.00;43.30;;;;;;1514243;78;1537;-73
2024/02/29 11:37:01;;;;;;;;;;;18.00;43.20;;;;;;1511399;78;1381;-73
2024/02/29 11:39:03;;;;;;;;;;;18.00;43.20;;;;;;1506686;78;1934;-73
2024/02/29 11:41:20;;;;;;;;;;;18.10;43.40;;;;;;1507632;77;1145;-76
2024/02/29 11:43:22;;;;;;;;;;;18.10;43.40;;;;;;1502308;78;1509;-73
2024/02/29 11:45:24;;;;;;;;;;;18.10;43.40;;;;;;1511950;78;1425;-73
2024/02/29 11:47:27;;;;;;;;;;;18.00;43.30;;;;;;1511582;78;1523;-74
2024/02/29 11:49:29;;;;;;;;;;;18.00;43.30;;;;;;1513964;78;1321;-75
2024/02/29 11:51:31;;;;;;;;;;;18.10;43.40;;;;;;1509231;77;1542;-76
2024/02/29 11:53:33;;;;;;;;;;;18.10;43.40;;;;;;1509425;78;1114;-73
2024/02/29 11:55:35;;;;;;;;;;;18.10;43.50;;;;;;1505075;77;1767;-74
2024/02/29 11:57:37;;;;;;;;;;;18.10;43.40;;;;;;1510513;78;1929;-73
2024/02/29 11:59:39;;;;;;;;;;;18.10;43.40;;;;;;1506925;77;1439;-75
2024/02/29 12:01:43;;;;;;;;;;;18.20;43.40;;;;;;1508253;78;1451;-76
2024/02/29 12:03:45;;;;;;;;;;;18.10;43.40;;;;;;1512308;78;1281;-75
2024/02/29 12:05:47;;;;;;;;;;;18.10;43.40;;;;;;1510710;78;1475;-73
2024/02/29 12:07:49;;;;;;;;;;;18.10;43.40;;;;;;1510521;77;1544;-75